sensor_id;sensor_type;location;lat;lon;timestamp;temperature;humidity
35373;DHT22;21476;51.652;7.852;2023-02-15T00:01:39;1.50;99.90
35373;DHT22;21476;51.652;7.852;2023-02-15T00:04:08;1.40;99.90
35373;DHT22;21476;51.652;7.852;2023-02-15T00:06:35;1.40;99.90
35373;DHT22;21476;51.652;7.852;2023-02-15T00:09:01;1.30;99.90
35373;DHT22;21476;51.652;7.852;2023-02-15T00:11:27;1.10;99.90
35373;DHT22;21476;51.652;7.852;2023-02-15T00:14:23;1.20;99.90
35373;DHT22;21476;51.652;7.852;2023-02-15T00:16:50;1.30;99.90
35373;DHT22;21476;51.652;7.852;2023-02-15T00:19:18;1.30;99.90
35373;DHT22;21476;51.652;7.852;2023-02-15T00:21:44;1.30;99.90
35373;DHT22;21476;51.652;7.852;2023-02-15T00:24:12;1.30;99.90
35373;DHT22;21476;51.652;7.852;2023-02-15T00:26:39;1.20;99.90
35373;DHT22;21476;51.652;7.852;2023-02-15T00:29:05;1.30;99.90
35373;DHT22;21476;51.652;7.852;2023-02-15T00:31:32;1.30;99.90
35373;DHT22;21476;51.652;7.852;2023-02-15T00:34:16;1.30;99.90
35373;DHT22;21476;51.652;7.852;2023-02-15T00:36:43;1.30;99.90
35373;DHT22;21476;51.652;7.852;2023-02-15T00:39:09;1.20;99.90
35373;DHT22;21476;51.652;7.852;2023-02-15T00:41:35;1.20;99.90
35373;DHT22;21476;51.652;7.852;2023-02-15T00:44:01;1.20;99.90
35373;DHT22;21476;51.652;7.852;2023-02-15T00:46:26;1.10;99.90
35373;DHT22;21476;51.652;7.852;2023-02-15T00:48:53;1.20;99.90
35373;DHT22;21476;51.652;7.852;2023-02-15T00:51:19;1.10;99.90
35373;DHT22;21476;51.652;7.852;2023-02-15T00:53:46;1.10;99.90
35373;DHT22;21476;51.652;7.852;2023-02-15T00:56:12;1.10;99.90
35373;DHT22;21476;51.652;7.852;2023-02-15T00:58:37;1.00;99.90
35373;DHT22;21476;51.652;7.852;2023-02-15T01:01:12;0.90;99.90
35373;DHT22;21476;51.652;7.852;2023-02-15T01:03:38;0.70;99.90
35373;DHT22;21476;51.652;7.852;2023-02-15T01:06:04;0.70;99.90
35373;DHT22;21476;51.652;7.852;2023-02-15T01:08:30;0.80;99.90
35373;DHT22;21476;51.652;7.852;2023-02-15T01:10:56;0.70;99.90
35373;DHT22;21476;51.652;7.852;2023-02-15T01:13:22;0.60;99.90
35373;DHT22;21476;51.652;7.852;2023-02-15T01:15:55;0.60;99.90
35373;DHT22;21476;51.652;7.852;2023-02-15T01:18:21;0.60;99.90
35373;DHT22;21476;51.652;7.852;2023-02-15T01:20:46;0.50;99.90
35373;DHT22;21476;51.652;7.852;2023-02-15T01:23:13;0.60;99.90
35373;DHT22;21476;51.652;7.852;2023-02-15T01:25:38;0.50;99.90
35373;DHT22;21476;51.652;7.852;2023-02-15T01:28:05;0.50;99.90
35373;DHT22;21476;51.652;7.852;2023-02-15T01:30:31;0.50;99.90
35373;DHT22;21476;51.652;7.852;2023-02-15T01:32:57;0.50;99.90
35373;DHT22;21476;51.652;7.852;2023-02-15T01:35:23;0.40;99.90
35373;DHT22;21476;51.652;7.852;2023-02-15T01:37:49;0.40;99.90
35373;DHT22;21476;51.652;7.852;2023-02-15T01:40:17;0.40;99.90
35373;DHT22;21476;51.652;7.852;2023-02-15T01:42:43;0.50;99.90
35373;DHT22;21476;51.652;7.852;2023-02-15T01:47:57;0.30;99.90
35373;DHT22;21476;51.652;7.852;2023-02-15T01:50:37;0.40;99.90
35373;DHT22;21476;51.652;7.852;2023-02-15T01:53:29;0.40;99.90
35373;DHT22;21476;51.652;7.852;2023-02-15T01:55:58;0.40;99.90
35373;DHT22;21476;51.652;7.852;2023-02-15T01:58:25;0.40;99.90
35373;DHT22;21476;51.652;7.852;2023-02-15T02:00:53;0.40;99.90
35373;DHT22;21476;51.652;7.852;2023-02-15T02:03:49;0.50;99.90
35373;DHT22;21476;51.652;7.852;2023-02-15T02:06:17;0.50;99.90
35373;DHT22;21476;51.652;7.852;2023-02-15T02:08:43;0.50;99.90
35373;DHT22;21476;51.652;7.852;2023-02-15T02:11:13;0.50;99.90
35373;DHT22;21476;51.652;7.852;2023-02-15T02:13:43;0.50;99.90
35373;DHT22;21476;51.652;7.852;2023-02-15T02:21:39;0.40;99.90
35373;DHT22;21476;51.652;7.852;2023-02-15T02:35:47;0.30;99.90
35373;DHT22;21476;51.652;7.852;2023-02-15T02:38:47;0.30;99.90
35373;DHT22;21476;51.652;7.852;2023-02-15T02:41:44;0.20;99.90
35373;DHT22;21476;51.652;7.852;2023-02-15T02:49:43;0.10;99.90
35373;DHT22;21476;51.652;7.852;2023-02-15T02:52:43;0.10;99.90
35373;DHT22;21476;51.652;7.852;2023-02-15T02:57:37;0.00;99.90
35373;DHT22;21476;51.652;7.852;2023-02-15T03:00:07;-0.10;99.90
35373;DHT22;21476;51.652;7.852;2023-02-15T03:02:37;0.00;99.90
35373;DHT22;21476;51.652;7.852;2023-02-15T03:05:09;-0.10;99.90
35373;DHT22;21476;51.652;7.852;2023-02-15T03:07:37;-0.10;99.90
35373;DHT22;21476;51.652;7.852;2023-02-15T03:10:05;-0.20;99.90
35373;DHT22;21476;51.652;7.852;2023-02-15T03:12:36;-0.20;99.90
35373;DHT22;21476;51.652;7.852;2023-02-15T03:15:24;-0.10;99.90
35373;DHT22;21476;51.652;7.852;2023-02-15T03:17:59;-0.20;99.90
35373;DHT22;21476;51.652;7.852;2023-02-15T03:20:33;-0.20;99.90
35373;DHT22;21476;51.652;7.852;2023-02-15T03:23:02;-0.20;99.90
35373;DHT22;21476;51.652;7.852;2023-02-15T03:25:45;-0.20;99.90
35373;DHT22;21476;51.652;7.852;2023-02-15T03:28:15;-0.20;99.90
35373;DHT22;21476;51.652;7.852;2023-02-15T03:30:46;-0.20;99.90
35373;DHT22;21476;51.652;7.852;2023-02-15T03:33:14;-0.20;99.90
35373;DHT22;21476;51.652;7.852;2023-02-15T03:38:59;-0.20;99.90
35373;DHT22;21476;51.652;7.852;2023-02-15T03:41:32;-0.20;99.90
35373;DHT22;21476;51.652;7.852;2023-02-15T03:44:37;0.00;99.90
35373;DHT22;21476;51.652;7.852;2023-02-15T03:47:06;0.00;99.90
35373;DHT22;21476;51.652;7.852;2023-02-15T03:52:09;-0.10;99.90
35373;DHT22;21476;51.652;7.852;2023-02-15T03:54:36;-0.10;99.90
35373;DHT22;21476;51.652;7.852;2023-02-15T04:00:08;-0.20;99.90
35373;DHT22;21476;51.652;7.852;2023-02-15T04:06:08;-0.30;99.90
35373;DHT22;21476;51.652;7.852;2023-02-15T04:08:33;-0.40;99.90
35373;DHT22;21476;51.652;7.852;2023-02-15T04:11:18;-0.40;99.90
35373;DHT22;21476;51.652;7.852;2023-02-15T04:13:43;-0.30;99.90
35373;DHT22;21476;51.652;7.852;2023-02-15T04:16:09;-0.40;99.90
35373;DHT22;21476;51.652;7.852;2023-02-15T04:18:40;-0.40;99.90
35373;DHT22;21476;51.652;7.852;2023-02-15T04:21:26;-0.40;99.90
35373;DHT22;21476;51.652;7.852;2023-02-15T04:24:11;-0.50;99.90
35373;DHT22;21476;51.652;7.852;2023-02-15T04:26:56;-0.50;99.90
35373;DHT22;21476;51.652;7.852;2023-02-15T04:29:23;-0.50;99.90
35373;DHT22;21476;51.652;7.852;2023-02-15T04:31:49;-0.50;99.90
35373;DHT22;21476;51.652;7.852;2023-02-15T04:34:15;-0.50;99.90
35373;DHT22;21476;51.652;7.852;2023-02-15T04:36:41;-0.50;99.90
35373;DHT22;21476;51.652;7.852;2023-02-15T04:39:08;-0.50;99.90
35373;DHT22;21476;51.652;7.852;2023-02-15T04:41:34;-0.50;99.90
35373;DHT22;21476;51.652;7.852;2023-02-15T04:44:00;-0.40;99.90
35373;DHT22;21476;51.652;7.852;2023-02-15T04:46:27;-0.50;99.90
35373;DHT22;21476;51.652;7.852;2023-02-15T04:48:53;-0.60;99.90
35373;DHT22;21476;51.652;7.852;2023-02-15T04:51:18;-0.60;99.90
35373;DHT22;21476;51.652;7.852;2023-02-15T04:53:44;-0.60;99.90
35373;DHT22;21476;51.652;7.852;2023-02-15T04:56:10;-0.70;99.90
35373;DHT22;21476;51.652;7.852;2023-02-15T04:58:35;-0.70;99.90
35373;DHT22;21476;51.652;7.852;2023-02-15T05:01:02;-0.70;99.90
35373;DHT22;21476;51.652;7.852;2023-02-15T05:03:28;-0.70;99.90
35373;DHT22;21476;51.652;7.852;2023-02-15T05:05:54;-0.60;99.90
35373;DHT22;21476;51.652;7.852;2023-02-15T05:08:20;-0.60;99.90
35373;DHT22;21476;51.652;7.852;2023-02-15T05:10:48;-0.60;99.90
35373;DHT22;21476;51.652;7.852;2023-02-15T05:13:14;-0.60;99.90
35373;DHT22;21476;51.652;7.852;2023-02-15T05:15:39;-0.60;99.90
35373;DHT22;21476;51.652;7.852;2023-02-15T05:18:05;-0.60;99.90
35373;DHT22;21476;51.652;7.852;2023-02-15T05:20:33;-0.70;99.90
35373;DHT22;21476;51.652;7.852;2023-02-15T05:22:59;-0.60;99.90
35373;DHT22;21476;51.652;7.852;2023-02-15T05:25:24;-0.70;99.90
35373;DHT22;21476;51.652;7.852;2023-02-15T05:28:11;-0.70;99.90
35373;DHT22;21476;51.652;7.852;2023-02-15T05:30:51;-0.70;99.90
35373;DHT22;21476;51.652;7.852;2023-02-15T05:33:23;-0.70;99.90
35373;DHT22;21476;51.652;7.852;2023-02-15T05:35:49;-0.70;99.90
35373;DHT22;21476;51.652;7.852;2023-02-15T05:38:15;-0.70;99.90
35373;DHT22;21476;51.652;7.852;2023-02-15T05:40:40;-0.70;99.90
35373;DHT22;21476;51.652;7.852;2023-02-15T05:43:06;-0.70;99.90
35373;DHT22;21476;51.652;7.852;2023-02-15T05:45:31;-0.70;99.90
35373;DHT22;21476;51.652;7.852;2023-02-15T05:47:57;-0.60;99.90
35373;DHT22;21476;51.652;7.852;2023-02-15T05:50:24;-0.60;99.90
35373;DHT22;21476;51.652;7.852;2023-02-15T05:52:50;-0.70;99.90
35373;DHT22;21476;51.652;7.852;2023-02-15T05:55:15;-0.70;99.90
35373;DHT22;21476;51.652;7.852;2023-02-15T05:57:41;-0.70;99.90
35373;DHT22;21476;51.652;7.852;2023-02-15T06:00:07;-0.70;99.90
35373;DHT22;21476;51.652;7.852;2023-02-15T06:02:35;-0.70;99.90
35373;DHT22;21476;51.652;7.852;2023-02-15T06:05:01;-0.70;99.90
35373;DHT22;21476;51.652;7.852;2023-02-15T06:07:27;-0.70;99.90
35373;DHT22;21476;51.652;7.852;2023-02-15T06:09:52;-0.60;99.90
35373;DHT22;21476;51.652;7.852;2023-02-15T06:12:18;-0.60;99.90
35373;DHT22;21476;51.652;7.852;2023-02-15T06:14:43;-0.80;99.90
35373;DHT22;21476;51.652;7.852;2023-02-15T06:17:09;-0.80;99.90
35373;DHT22;21476;51.652;7.852;2023-02-15T06:19:34;-0.70;99.90
35373;DHT22;21476;51.652;7.852;2023-02-15T06:22:00;-0.70;99.90
35373;DHT22;21476;51.652;7.852;2023-02-15T06:24:25;-0.60;99.90
35373;DHT22;21476;51.652;7.852;2023-02-15T06:26:51;-0.60;99.90
35373;DHT22;21476;51.652;7.852;2023-02-15T06:29:17;-0.60;99.90
35373;DHT22;21476;51.652;7.852;2023-02-15T06:31:43;-0.60;99.90
35373;DHT22;21476;51.652;7.852;2023-02-15T06:34:08;-0.60;99.90
35373;DHT22;21476;51.652;7.852;2023-02-15T06:36:34;-0.70;99.90
35373;DHT22;21476;51.652;7.852;2023-02-15T06:39:00;-0.80;99.90
35373;DHT22;21476;51.652;7.852;2023-02-15T06:41:25;-0.80;99.90
35373;DHT22;21476;51.652;7.852;2023-02-15T06:43:51;-0.80;99.90
35373;DHT22;21476;51.652;7.852;2023-02-15T06:46:16;-0.80;99.90
35373;DHT22;21476;51.652;7.852;2023-02-15T06:48:42;-0.80;99.90
35373;DHT22;21476;51.652;7.852;2023-02-15T06:51:08;-0.80;99.90
35373;DHT22;21476;51.652;7.852;2023-02-15T06:53:34;-0.80;99.90
35373;DHT22;21476;51.652;7.852;2023-02-15T06:56:06;-0.70;99.90
35373;DHT22;21476;51.652;7.852;2023-02-15T06:58:40;-0.70;99.90
35373;DHT22;21476;51.652;7.852;2023-02-15T07:01:07;-0.50;99.90
35373;DHT22;21476;51.652;7.852;2023-02-15T07:03:33;-0.10;99.90
35373;DHT22;21476;51.652;7.852;2023-02-15T07:06:02;0.30;99.90
35373;DHT22;21476;51.652;7.852;2023-02-15T07:08:28;0.90;99.90
35373;DHT22;21476;51.652;7.852;2023-02-15T07:10:55;1.60;99.90
35373;DHT22;21476;51.652;7.852;2023-02-15T07:13:41;2.10;99.90
35373;DHT22;21476;51.652;7.852;2023-02-15T07:16:17;2.80;99.90
35373;DHT22;21476;51.652;7.852;2023-02-15T07:18:42;3.40;99.90
35373;DHT22;21476;51.652;7.852;2023-02-15T07:21:08;3.90;99.90
35373;DHT22;21476;51.652;7.852;2023-02-15T07:23:38;4.60;99.90
35373;DHT22;21476;51.652;7.852;2023-02-15T07:26:05;5.10;99.90
35373;DHT22;21476;51.652;7.852;2023-02-15T07:28:34;5.90;99.90
35373;DHT22;21476;51.652;7.852;2023-02-15T07:31:03;5.90;99.90
35373;DHT22;21476;51.652;7.852;2023-02-15T07:33:33;6.20;99.90
35373;DHT22;21476;51.652;7.852;2023-02-15T07:36:02;6.60;99.90
35373;DHT22;21476;51.652;7.852;2023-02-15T07:38:36;6.80;99.90
35373;DHT22;21476;51.652;7.852;2023-02-15T07:41:05;7.60;99.90
35373;DHT22;21476;51.652;7.852;2023-02-15T07:43:33;7.70;99.90
35373;DHT22;21476;51.652;7.852;2023-02-15T07:46:01;8.30;99.90
35373;DHT22;21476;51.652;7.852;2023-02-15T07:48:27;8.30;99.90
35373;DHT22;21476;51.652;7.852;2023-02-15T07:50:53;8.70;99.90
35373;DHT22;21476;51.652;7.852;2023-02-15T07:53:18;8.90;99.90
35373;DHT22;21476;51.652;7.852;2023-02-15T07:55:44;9.30;99.90
35373;DHT22;21476;51.652;7.852;2023-02-15T07:58:10;9.40;99.90
35373;DHT22;21476;51.652;7.852;2023-02-15T08:00:35;9.80;99.90
35373;DHT22;21476;51.652;7.852;2023-02-15T08:03:23;10.50;99.90
35373;DHT22;21476;51.652;7.852;2023-02-15T08:05:56;11.50;99.90
35373;DHT22;21476;51.652;7.852;2023-02-15T08:08:22;11.80;99.90
35373;DHT22;21476;51.652;7.852;2023-02-15T08:11:15;11.50;99.90
35373;DHT22;21476;51.652;7.852;2023-02-15T08:19:28;11.90;99.90
35373;DHT22;21476;51.652;7.852;2023-02-15T08:21:56;12.40;99.90
35373;DHT22;21476;51.652;7.852;2023-02-15T08:24:24;12.80;99.90
35373;DHT22;21476;51.652;7.852;2023-02-15T08:26:50;13.90;99.90
35373;DHT22;21476;51.652;7.852;2023-02-15T08:29:18;15.00;99.90
35373;DHT22;21476;51.652;7.852;2023-02-15T08:31:44;15.30;99.90
35373;DHT22;21476;51.652;7.852;2023-02-15T08:34:13;15.80;99.90
35373;DHT22;21476;51.652;7.852;2023-02-15T08:36:39;14.80;99.90
35373;DHT22;21476;51.652;7.852;2023-02-15T08:39:06;14.40;99.90
35373;DHT22;21476;51.652;7.852;2023-02-15T08:41:35;13.90;99.90
35373;DHT22;21476;51.652;7.852;2023-02-15T08:44:04;14.60;99.90
35373;DHT22;21476;51.652;7.852;2023-02-15T08:46:32;14.20;99.90
35373;DHT22;21476;51.652;7.852;2023-02-15T08:48:59;14.30;99.90
35373;DHT22;21476;51.652;7.852;2023-02-15T08:51:27;16.50;99.90
35373;DHT22;21476;51.652;7.852;2023-02-15T08:53:56;17.00;99.40
35373;DHT22;21476;51.652;7.852;2023-02-15T08:56:26;17.20;98.70
35373;DHT22;21476;51.652;7.852;2023-02-15T08:58:53;15.70;99.90
35373;DHT22;21476;51.652;7.852;2023-02-15T09:01:21;16.30;99.90
35373;DHT22;21476;51.652;7.852;2023-02-15T09:03:49;16.60;99.90
35373;DHT22;21476;51.652;7.852;2023-02-15T09:06:16;16.20;99.20
35373;DHT22;21476;51.652;7.852;2023-02-15T09:08:43;16.20;98.00
35373;DHT22;21476;51.652;7.852;2023-02-15T09:13:48;15.90;99.50
35373;DHT22;21476;51.652;7.852;2023-02-15T09:16:14;15.80;99.70
35373;DHT22;21476;51.652;7.852;2023-02-15T09:18:42;15.40;99.90
35373;DHT22;21476;51.652;7.852;2023-02-15T09:21:11;16.00;99.90
35373;DHT22;21476;51.652;7.852;2023-02-15T09:23:39;16.00;99.90
35373;DHT22;21476;51.652;7.852;2023-02-15T09:26:08;17.10;99.30
35373;DHT22;21476;51.652;7.852;2023-02-15T09:28:34;16.70;98.80
35373;DHT22;21476;51.652;7.852;2023-02-15T09:31:14;16.80;99.30
35373;DHT22;21476;51.652;7.852;2023-02-15T09:33:41;16.90;99.20
35373;DHT22;21476;51.652;7.852;2023-02-15T09:38:46;16.90;99.60
35373;DHT22;21476;51.652;7.852;2023-02-15T10:11:16;17.40;98.50
35373;DHT22;21476;51.652;7.852;2023-02-15T10:17:08;17.70;97.20
35373;DHT22;21476;51.652;7.852;2023-02-15T10:25:24;17.70;99.20
35373;DHT22;21476;51.652;7.852;2023-02-15T10:27:51;18.10;97.70
35373;DHT22;21476;51.652;7.852;2023-02-15T10:33:01;17.40;98.20
35373;DHT22;21476;51.652;7.852;2023-02-15T10:38:42;16.40;99.90
35373;DHT22;21476;51.652;7.852;2023-02-15T10:44:17;17.20;99.90
35373;DHT22;21476;51.652;7.852;2023-02-15T10:57:48;17.40;98.70
35373;DHT22;21476;51.652;7.852;2023-02-15T11:06:19;16.70;99.90
35373;DHT22;21476;51.652;7.852;2023-02-15T11:08:50;16.80;99.90
35373;DHT22;21476;51.652;7.852;2023-02-15T11:14:21;16.50;99.90
35373;DHT22;21476;51.652;7.852;2023-02-15T11:16:46;15.60;99.90
35373;DHT22;21476;51.652;7.852;2023-02-15T11:19:26;15.70;99.90
35373;DHT22;21476;51.652;7.852;2023-02-15T11:21:57;15.90;99.90
35373;DHT22;21476;51.652;7.852;2023-02-15T11:24:28;15.90;99.90
35373;DHT22;21476;51.652;7.852;2023-02-15T11:27:00;15.90;99.90
35373;DHT22;21476;51.652;7.852;2023-02-15T11:40:48;16.00;99.90
35373;DHT22;21476;51.652;7.852;2023-02-15T11:43:39;15.70;99.90
35373;DHT22;21476;51.652;7.852;2023-02-15T11:46:10;15.40;99.90
35373;DHT22;21476;51.652;7.852;2023-02-15T11:48:36;15.60;99.90
35373;DHT22;21476;51.652;7.852;2023-02-15T11:51:02;15.60;99.90
35373;DHT22;21476;51.652;7.852;2023-02-15T11:53:32;15.80;99.90
35373;DHT22;21476;51.652;7.852;2023-02-15T11:55:59;15.70;99.90
35373;DHT22;21476;51.652;7.852;2023-02-15T11:58:56;15.70;99.90
35373;DHT22;21476;51.652;7.852;2023-02-15T12:01:43;15.60;99.90
35373;DHT22;21476;51.652;7.852;2023-02-15T12:04:18;15.70;99.90
35373;DHT22;21476;51.652;7.852;2023-02-15T12:06:57;15.60;99.90
35373;DHT22;21476;51.652;7.852;2023-02-15T12:09:45;15.60;99.90
35373;DHT22;21476;51.652;7.852;2023-02-15T12:12:25;15.60;99.90
35373;DHT22;21476;51.652;7.852;2023-02-15T12:14:56;15.40;99.90
35373;DHT22;21476;51.652;7.852;2023-02-15T12:17:34;15.50;99.90
35373;DHT22;21476;51.652;7.852;2023-02-15T12:20:29;15.70;99.90
35373;DHT22;21476;51.652;7.852;2023-02-15T12:23:12;15.50;99.90
35373;DHT22;21476;51.652;7.852;2023-02-15T12:25:52;15.80;99.90
35373;DHT22;21476;51.652;7.852;2023-02-15T12:28:36;16.00;99.90
35373;DHT22;21476;51.652;7.852;2023-02-15T12:31:18;16.30;99.90
35373;DHT22;21476;51.652;7.852;2023-02-15T12:33:45;16.30;99.90
35373;DHT22;21476;51.652;7.852;2023-02-15T12:36:23;16.40;99.90
35373;DHT22;21476;51.652;7.852;2023-02-15T12:39:18;16.50;99.90
35373;DHT22;21476;51.652;7.852;2023-02-15T12:41:57;16.60;99.90
35373;DHT22;21476;51.652;7.852;2023-02-15T12:44:31;16.80;99.90
35373;DHT22;21476;51.652;7.852;2023-02-15T12:47:18;16.60;99.90
35373;DHT22;21476;51.652;7.852;2023-02-15T12:49:45;16.70;99.90
35373;DHT22;21476;51.652;7.852;2023-02-15T12:52:28;16.80;99.90
35373;DHT22;21476;51.652;7.852;2023-02-15T12:54:54;16.80;99.90
35373;DHT22;21476;51.652;7.852;2023-02-15T12:57:31;16.90;99.90
35373;DHT22;21476;51.652;7.852;2023-02-15T13:05:18;17.00;99.90
35373;DHT22;21476;51.652;7.852;2023-02-15T13:07:50;16.80;99.90
35373;DHT22;21476;51.652;7.852;2023-02-15T13:10:24;16.90;99.90
35373;DHT22;21476;51.652;7.852;2023-02-15T13:12:50;16.80;99.90
35373;DHT22;21476;51.652;7.852;2023-02-15T13:15:34;16.70;99.90
35373;DHT22;21476;51.652;7.852;2023-02-15T13:18:01;16.50;99.90
35373;DHT22;21476;51.652;7.852;2023-02-15T13:20:27;16.10;99.90
35373;DHT22;21476;51.652;7.852;2023-02-15T13:22:58;16.00;99.90
35373;DHT22;21476;51.652;7.852;2023-02-15T13:25:28;15.90;99.90
35373;DHT22;21476;51.652;7.852;2023-02-15T13:28:01;15.90;99.90
35373;DHT22;21476;51.652;7.852;2023-02-15T13:30:35;16.10;99.90
35373;DHT22;21476;51.652;7.852;2023-02-15T13:33:05;16.00;99.90
35373;DHT22;21476;51.652;7.852;2023-02-15T13:35:48;15.90;99.90
35373;DHT22;21476;51.652;7.852;2023-02-15T13:41:03;15.70;99.90
35373;DHT22;21476;51.652;7.852;2023-02-15T13:43:59;15.60;99.90
35373;DHT22;21476;51.652;7.852;2023-02-15T13:52:20;15.50;99.90
35373;DHT22;21476;51.652;7.852;2023-02-15T14:00:17;15.70;99.90
35373;DHT22;21476;51.652;7.852;2023-02-15T14:03:05;15.70;99.90
35373;DHT22;21476;51.652;7.852;2023-02-15T14:08:41;15.40;99.90
35373;DHT22;21476;51.652;7.852;2023-02-15T14:11:34;15.40;99.90
35373;DHT22;21476;51.652;7.852;2023-02-15T14:17:18;15.30;99.90
35373;DHT22;21476;51.652;7.852;2023-02-15T14:19:46;15.30;99.90
35373;DHT22;21476;51.652;7.852;2023-02-15T14:22:42;15.40;99.90
35373;DHT22;21476;51.652;7.852;2023-02-15T14:25:38;15.40;99.90
35373;DHT22;21476;51.652;7.852;2023-02-15T14:28:19;15.40;99.90
35373;DHT22;21476;51.652;7.852;2023-02-15T14:30:49;15.40;99.90
35373;DHT22;21476;51.652;7.852;2023-02-15T14:33:31;15.40;99.90
35373;DHT22;21476;51.652;7.852;2023-02-15T14:35:59;15.30;99.90
35373;DHT22;21476;51.652;7.852;2023-02-15T14:49:40;15.20;99.90
35373;DHT22;21476;51.652;7.852;2023-02-15T14:52:10;15.10;99.90
35373;DHT22;21476;51.652;7.852;2023-02-15T15:02:46;15.00;99.90
35373;DHT22;21476;51.652;7.852;2023-02-15T15:06:06;14.90;99.90
35373;DHT22;21476;51.652;7.852;2023-02-15T15:13:58;14.70;99.90
35373;DHT22;21476;51.652;7.852;2023-02-15T15:18:53;14.50;99.90
35373;DHT22;21476;51.652;7.852;2023-02-15T15:24:57;14.30;99.90
35373;DHT22;21476;51.652;7.852;2023-02-15T15:27:52;14.10;99.90
35373;DHT22;21476;51.652;7.852;2023-02-15T15:38:45;13.60;99.90
35373;DHT22;21476;51.652;7.852;2023-02-15T15:41:40;13.50;99.90
35373;DHT22;21476;51.652;7.852;2023-02-15T15:49:40;13.00;99.90
35373;DHT22;21476;51.652;7.852;2023-02-15T15:52:17;12.90;99.90
35373;DHT22;21476;51.652;7.852;2023-02-15T15:54:44;12.70;99.90
35373;DHT22;21476;51.652;7.852;2023-02-15T15:59:45;12.50;99.90
35373;DHT22;21476;51.652;7.852;2023-02-15T16:02:14;12.50;99.90
35373;DHT22;21476;51.652;7.852;2023-02-15T16:04:44;12.50;99.90
35373;DHT22;21476;51.652;7.852;2023-02-15T16:12:20;12.20;99.90
35373;DHT22;21476;51.652;7.852;2023-02-15T16:14:46;12.10;99.90
35373;DHT22;21476;51.652;7.852;2023-02-15T16:17:22;11.90;99.90
35373;DHT22;21476;51.652;7.852;2023-02-15T16:19:49;11.70;99.90
35373;DHT22;21476;51.652;7.852;2023-02-15T16:22:21;11.40;99.90
35373;DHT22;21476;51.652;7.852;2023-02-15T16:25:07;11.10;99.90
35373;DHT22;21476;51.652;7.852;2023-02-15T16:27:46;10.80;99.90
35373;DHT22;21476;51.652;7.852;2023-02-15T16:30:34;10.60;99.90
35373;DHT22;21476;51.652;7.852;2023-02-15T16:33:12;10.40;99.90
35373;DHT22;21476;51.652;7.852;2023-02-15T16:35:40;10.30;99.90
35373;DHT22;21476;51.652;7.852;2023-02-15T16:38:09;10.20;99.90
35373;DHT22;21476;51.652;7.852;2023-02-15T16:40:52;10.20;99.90
35373;DHT22;21476;51.652;7.852;2023-02-15T16:43:25;10.20;99.90
35373;DHT22;21476;51.652;7.852;2023-02-15T16:45:56;10.10;99.90
35373;DHT22;21476;51.652;7.852;2023-02-15T16:48:25;10.00;99.90
35373;DHT22;21476;51.652;7.852;2023-02-15T16:50:56;10.00;99.90
35373;DHT22;21476;51.652;7.852;2023-02-15T16:53:26;9.90;99.90
35373;DHT22;21476;51.652;7.852;2023-02-15T16:55:58;9.70;99.90
35373;DHT22;21476;51.652;7.852;2023-02-15T16:58:36;9.60;99.90
35373;DHT22;21476;51.652;7.852;2023-02-15T17:01:06;9.50;99.90
35373;DHT22;21476;51.652;7.852;2023-02-15T17:03:33;9.30;99.90
35373;DHT22;21476;51.652;7.852;2023-02-15T17:06:00;9.20;99.90
35373;DHT22;21476;51.652;7.852;2023-02-15T17:08:36;9.10;99.90
35373;DHT22;21476;51.652;7.852;2023-02-15T17:11:19;9.00;99.90
35373;DHT22;21476;51.652;7.852;2023-02-15T17:16:34;8.50;99.90
35373;DHT22;21476;51.652;7.852;2023-02-15T17:19:02;8.50;99.90
35373;DHT22;21476;51.652;7.852;2023-02-15T17:21:33;8.40;99.90
35373;DHT22;21476;51.652;7.852;2023-02-15T17:24:01;8.40;99.90
35373;DHT22;21476;51.652;7.852;2023-02-15T17:26:34;8.40;99.90
35373;DHT22;21476;51.652;7.852;2023-02-15T17:31:36;8.20;99.90
35373;DHT22;21476;51.652;7.852;2023-02-15T17:34:02;8.20;99.90
35373;DHT22;21476;51.652;7.852;2023-02-15T17:36:30;8.10;99.90
35373;DHT22;21476;51.652;7.852;2023-02-15T17:39:03;8.10;99.90
35373;DHT22;21476;51.652;7.852;2023-02-15T17:41:31;8.00;99.90
35373;DHT22;21476;51.652;7.852;2023-02-15T17:43:59;7.90;99.90
35373;DHT22;21476;51.652;7.852;2023-02-15T17:46:25;7.90;99.90
35373;DHT22;21476;51.652;7.852;2023-02-15T17:48:53;7.90;99.90
35373;DHT22;21476;51.652;7.852;2023-02-15T17:51:21;7.90;99.90
35373;DHT22;21476;51.652;7.852;2023-02-15T17:53:47;7.80;99.90
35373;DHT22;21476;51.652;7.852;2023-02-15T17:56:32;7.80;99.90
35373;DHT22;21476;51.652;7.852;2023-02-15T17:58:58;7.70;99.90
35373;DHT22;21476;51.652;7.852;2023-02-15T18:01:23;7.60;99.90
35373;DHT22;21476;51.652;7.852;2023-02-15T18:04:12;7.50;99.90
35373;DHT22;21476;51.652;7.852;2023-02-15T18:06:58;7.40;99.90
35373;DHT22;21476;51.652;7.852;2023-02-15T18:09:43;7.30;99.90
35373;DHT22;21476;51.652;7.852;2023-02-15T18:14:55;7.20;99.90
35373;DHT22;21476;51.652;7.852;2023-02-15T18:17:31;7.20;99.90
35373;DHT22;21476;51.652;7.852;2023-02-15T18:19:57;7.20;99.90
35373;DHT22;21476;51.652;7.852;2023-02-15T18:22:23;7.20;99.90
35373;DHT22;21476;51.652;7.852;2023-02-15T18:24:49;7.10;99.90
35373;DHT22;21476;51.652;7.852;2023-02-15T18:27:15;7.00;99.90
35373;DHT22;21476;51.652;7.852;2023-02-15T18:29:41;7.00;99.90
35373;DHT22;21476;51.652;7.852;2023-02-15T18:32:12;7.00;99.90
35373;DHT22;21476;51.652;7.852;2023-02-15T18:34:41;7.00;99.90
35373;DHT22;21476;51.652;7.852;2023-02-15T18:37:15;7.00;99.90
35373;DHT22;21476;51.652;7.852;2023-02-15T18:39:46;6.90;99.90
35373;DHT22;21476;51.652;7.852;2023-02-15T18:42:24;6.90;99.90
35373;DHT22;21476;51.652;7.852;2023-02-15T18:45:28;6.90;99.90
35373;DHT22;21476;51.652;7.852;2023-02-15T18:47:59;6.90;99.90
35373;DHT22;21476;51.652;7.852;2023-02-15T18:50:30;6.90;99.90
35373;DHT22;21476;51.652;7.852;2023-02-15T18:52:57;6.90;99.90
35373;DHT22;21476;51.652;7.852;2023-02-15T18:55:24;6.70;99.90
35373;DHT22;21476;51.652;7.852;2023-02-15T18:57:52;6.80;99.90
35373;DHT22;21476;51.652;7.852;2023-02-15T19:00:22;6.80;99.90
35373;DHT22;21476;51.652;7.852;2023-02-15T19:02:50;6.80;99.90
35373;DHT22;21476;51.652;7.852;2023-02-15T19:05:16;6.90;99.90
35373;DHT22;21476;51.652;7.852;2023-02-15T19:07:44;6.90;99.90
35373;DHT22;21476;51.652;7.852;2023-02-15T19:10:19;6.80;99.90
35373;DHT22;21476;51.652;7.852;2023-02-15T19:12:46;6.80;99.90
35373;DHT22;21476;51.652;7.852;2023-02-15T19:15:21;6.80;99.90
35373;DHT22;21476;51.652;7.852;2023-02-15T19:17:47;6.70;99.90
35373;DHT22;21476;51.652;7.852;2023-02-15T19:20:20;6.70;99.90
35373;DHT22;21476;51.652;7.852;2023-02-15T19:22:48;6.60;99.90
35373;DHT22;21476;51.652;7.852;2023-02-15T19:25:22;6.70;99.90
35373;DHT22;21476;51.652;7.852;2023-02-15T19:27:48;6.60;99.90
35373;DHT22;21476;51.652;7.852;2023-02-15T19:30:15;6.70;99.90
35373;DHT22;21476;51.652;7.852;2023-02-15T19:32:43;6.70;99.90
35373;DHT22;21476;51.652;7.852;2023-02-15T19:35:17;6.80;99.90
35373;DHT22;21476;51.652;7.852;2023-02-15T19:37:47;6.70;99.90
35373;DHT22;21476;51.652;7.852;2023-02-15T19:40:26;6.70;99.90